Terminal Aerodrome Forecast
Issued by NWS Wilmington, OH

Current Version | Previous Version | Graphics & Text | Print | Product List | Glossary On
Versions: 1 2 3 4 5 6 7 8 9 10 11 12 13 14 15 16 17 18 19 20 21 22 23 24 25 26 27 28 29 30 31 32 33
000
FTUS41 KILN 301741
TAFCVG
TAF
KCVG 301741Z 3018/0124 24012KT P6SM BKN035
      TEMPO 3018/3020 BKN025
     FM302200 26010KT P6SM SCT080
     FM010300 26008KT P6SM BKN035
     FM011500 25012G20KT P6SM BKN035=

USA.gov is the U.S. government's official web portal to all federal, state and local government web resources and services.